Time;durP1;ratioP1;P1;durP2;ratioP2;P2;SDS_P1;SDS_P2;PMS_P1;PMS_P2;Temp;Humidity;BMP_temperature;BMP_pressure;BME280_temperature;BME280_humidity;BME280_pressure;Samples;Min_cycle;Max_cycle;Signal;HPM_P1;HPM_P2
2021/10/13 06:59:13;;;;;;;9.10;4.85;;;;;;;;;;5070434;28;20384;-71
2021/10/13 07:01:39;;;;;;;17.90;5.43;;;;;;;;;;5071020;28;20387;-76
2021/10/13 07:04:05;;;;;;;15.25;6.65;;;;;;;;;;5070843;28;20021;-76
2021/10/13 07:10:52;;;;;;;13.50;5.88;;;;;;;21.27;51.14;101131.56;5023334;27;73827;-75
2021/10/13 07:13:18;;;;;;;9.80;5.65;;;;;;;21.19;51.01;101132.19;5036707;28;58761;-76
2021/10/13 07:15:44;;;;;;;11.52;6.15;;;;;;;21.21;51.21;101145.28;5013189;28;20033;-77
2021/10/13 07:18:10;;;;;;;11.73;5.97;;;;;;;21.60;49.96;101146.56;5029180;28;20500;-75
2021/10/13 07:27:57;;;;;;;13.02;5.45;;;;;;;21.66;49.75;101150.53;5111320;27;20373;-76
2021/10/13 07:30:24;;;;;;;12.60;5.00;;;;;;;21.48;50.18;101153.72;5111614;28;20036;-77
2021/10/13 07:32:53;;;;;;;10.05;4.53;;;;;;;21.25;50.54;101150.22;5076257;28;20478;-79
2021/10/13 07:35:22;;;;;;;10.80;5.25;;;;;;;21.44;50.33;101152.28;5092925;28;20067;-78
2021/10/13 07:40:56;;;;;;;11.13;4.80;;;;;;;20.95;51.80;101143.75;7430666;19;20386;-78
2021/10/13 07:43:22;;;;;;;15.93;5.22;;;;;;;20.83;52.37;101157.97;7433348;19;20002;-80
2021/10/13 07:45:48;;;;;;;9.32;4.60;;;;;;;20.75;52.55;101149.78;7434091;19;20009;-78
2021/10/13 07:48:14;;;;;;;9.18;4.75;;;;;;;21.26;51.03;101156.38;7431187;19;20029;-79
2021/10/13 07:50:39;;;;;;;9.32;4.20;;;;;;;21.56;50.15;101169.84;7435129;19;20525;-78
2021/10/13 07:53:05;;;;;;;9.18;4.15;;;;;;;22.03;48.98;101161.59;7431340;19;20033;-79
2021/10/13 07:55:32;;;;;;;13.13;4.30;;;;;;;21.87;49.08;101172.66;7430598;19;20444;-78
2021/10/13 07:57:57;;;;;;;6.95;4.50;;;;;;;21.57;50.23;101170.69;7429431;19;20006;-76
2021/10/13 08:00:23;;;;;;;7.35;4.18;;;;;;;21.46;50.57;101168.91;7427286;19;20334;-76
2021/10/13 08:02:49;;;;;;;8.82;4.65;;;;;;;21.24;51.43;101176.88;7429485;19;20015;-76
2021/10/13 08:05:16;;;;;;;6.95;4.32;;;;;;;21.38;50.58;101173.94;7429879;19;20031;-74
2021/10/13 08:07:42;;;;;;;8.45;4.50;;;;;;;21.57;50.23;101176.84;7430399;19;20038;-75
2021/10/13 08:10:08;;;;;;;10.50;4.57;;;;;;;21.65;50.18;101180.69;7429335;19;20030;-74
2021/10/13 08:12:34;;;;;;;14.70;4.18;;;;;;;22.03;49.01;101184.66;7429447;19;20002;-75
2021/10/13 09:01:33;;;;;;;8.13;4.20;;;;;;;;;;5072230;28;20388;-74
2021/10/13 09:06:45;;;;;;;6.88;4.30;;;;;;;21.56;50.42;101193.69;5071338;28;20384;-68
2021/10/13 09:09:11;;;;;;;5.43;3.97;;;;;;;21.61;50.13;101189.84;5069384;28;20033;-69
2021/10/13 09:11:47;;;;;;;6.82;3.90;;;;;;;21.56;50.15;101188.41;5052865;28;20060;-67
2021/10/13 09:14:18;;;;;;;6.10;3.70;;;;;;;21.62;50.18;101184.44;5069560;28;20132;-69
2021/10/13 09:17:03;;;;;;;7.47;3.97;;;;;;;21.59;50.19;101188.16;5069372;28;20036;-68
2021/10/13 09:19:47;;;;;;;7.28;4.68;;;;;;;21.35;50.81;101183.00;5052881;28;20040;-71
2021/10/13 09:22:14;;;;;;;7.20;4.32;;;;;;;21.54;50.17;101181.53;5042704;28;20361;-67
2021/10/13 09:24:59;;;;;;;8.60;5.05;;;;;;;21.55;50.14;101185.91;5050341;28;20040;-70
2021/10/13 09:27:25;;;;;;;;;;;;;;;21.34;50.73;101181.28;5056842;28;20033;-69
2021/10/13 09:29:58;;;;;;;10.45;5.22;;;;;;;21.34;50.75;101183.94;5043075;28;19916;-69
2021/10/13 09:32:27;;;;;;;9.77;5.20;;;;;;;21.13;51.42;101191.81;5041907;28;20391;-67
2021/10/13 09:34:57;;;;;;;8.52;5.40;;;;;;;21.44;50.60;101180.63;5042454;28;20479;-67
2021/10/13 09:37:23;;;;;;;8.35;5.60;;;;;;;21.35;50.76;101180.34;5054154;28;20124;-69
2021/10/13 09:40:02;;;;;;;12.38;5.50;;;;;;;21.13;51.63;101178.56;5032516;28;20032;-68
2021/10/13 09:42:38;;;;;;;10.75;5.25;;;;;;;21.13;51.75;101188.31;5048888;28;20037;-67
2021/10/13 09:45:05;;;;;;;7.78;5.20;;;;;;;21.18;51.66;101188.78;5032510;28;20033;-68
2021/10/13 09:47:35;;;;;;;8.20;5.28;;;;;;;21.23;51.47;101191.91;5049796;28;20044;-66
2021/10/13 09:50:27;;;;;;;8.70;5.45;;;;;;;21.12;51.89;101194.56;5064746;28;20021;-67
2021/10/13 09:52:53;;;;;;;13.63;5.30;;;;;;;21.39;51.15;101189.75;5055843;28;20069;-67
2021/10/13 09:55:18;;;;;;;9.52;5.47;;;;;;;21.26;51.54;101190.84;5058810;28;20032;-67
2021/10/13 09:57:48;;;;;;;8.98;5.03;;;;;;;21.44;51.06;101188.56;5057542;28;70472;-67
2021/10/13 10:00:21;;;;;;;8.73;5.07;;;;;;;21.34;51.59;101178.63;5058583;28;20514;-78
2021/10/13 10:02:53;;;;;;;10.50;5.53;;;;;;;21.29;51.72;101180.81;5014691;28;20050;-73
2021/10/13 10:05:23;;;;;;;9.98;5.47;;;;;;;21.42;51.42;101180.72;5055215;28;20518;-75
2021/10/13 10:08:03;;;;;;;10.90;6.50;;;;;;;21.16;51.67;101182.75;5045691;28;20034;-75
2021/10/13 10:10:30;;;;;;;11.30;9.32;;;;;;;21.20;50.48;101186.03;5049529;28;20533;-74
2021/10/13 10:12:57;;;;;;;10.25;6.38;;;;;;;21.01;51.83;101184.84;5053395;28;20119;-68
2021/10/13 10:15:40;;;;;;;15.98;8.85;;;;;;;21.31;50.23;101184.19;5069395;28;20035;-78
2021/10/13 10:18:32;;;;;;;17.70;10.47;;;;;;;21.57;48.84;101187.44;5054899;28;20052;-73
2021/10/13 10:21:24;;;;;;;13.52;8.52;;;;;;;21.11;50.16;101193.72;5056005;28;20267;-71
2021/10/13 10:23:55;;;;;;;12.95;8.32;;;;;;;20.99;50.94;101196.53;5056143;28;20037;-69
2021/10/13 10:26:28;;;;;;;15.52;10.25;;;;;;;21.08;50.20;101191.34;5054674;28;20033;-69
2021/10/13 10:28:57;;;;;;;16.75;10.82;;;;;;;21.15;49.18;101184.56;5055873;28;20044;-71
2021/10/13 10:31:28;;;;;;;14.60;9.98;;;;;;;20.97;49.23;101189.50;5055369;28;20053;-76
2021/10/13 10:34:03;;;;;;;14.50;8.35;;;;;;;20.92;50.63;101183.75;5055512;28;20033;-72
2021/10/13 10:36:54;;;;;;;14.13;9.57;;;;;;;21.22;48.17;101195.53;5055656;28;20037;-74
2021/10/13 10:39:21;;;;;;;12.23;9.23;;;;;;;20.66;50.30;101192.88;5053186;28;20044;-69
2021/10/13 10:41:50;;;;;;;13.40;9.30;;;;;;;20.41;49.89;101192.06;5044269;28;20030;-69
2021/10/13 10:44:39;;;;;;;12.32;9.13;;;;;;;21.12;47.66;101189.25;5034765;28;20045;-66
2021/10/13 10:47:13;;;;;;;13.30;8.93;;;;;;;21.29;47.52;101187.94;5014477;28;20108;-66
2021/10/13 10:49:45;;;;;;;10.88;7.88;;;;;;;21.41;48.13;101188.78;5033051;28;20033;-69
2021/10/13 10:52:20;;;;;;;13.57;7.38;;;;;;;21.68;47.29;101191.03;5055285;28;20025;-71
2021/10/13 10:55:06;;;;;;;12.60;8.05;;;;;;;21.82;45.99;101189.94;5043258;28;20048;-71
2021/10/13 10:57:36;;;;;;;13.00;8.88;;;;;;;21.46;46.41;101198.09;5025874;28;20409;-69
2021/10/13 11:00:29;;;;;;;12.50;8.48;;;;;;;21.22;46.97;101184.94;5021090;28;20062;-77
2021/10/13 11:03:21;;;;;;;8.73;6.95;;;;;;;21.43;47.88;101190.34;5014195;28;20030;-73
2021/10/13 11:05:49;;;;;;;14.23;7.88;;;;;;;21.60;45.94;101189.00;5013115;28;20049;-69
2021/10/13 11:08:15;;;;;;;13.80;6.65;;;;;;;21.48;47.70;101189.97;5015431;28;20161;-71
2021/10/13 11:10:42;;;;;;;11.40;8.02;;;;;;;21.61;46.90;101190.69;5015943;28;20038;-74
2021/10/13 11:13:09;;;;;;;12.00;7.80;;;;;;;21.38;47.17;101189.84;5015279;28;20033;-75
2021/10/13 11:15:41;;;;;;;12.80;6.88;;;;;;;21.39;48.27;101194.22;5038633;28;20044;-70
2021/10/13 11:18:17;;;;;;;11.43;8.10;;;;;;;21.51;47.14;101193.25;5055079;28;20068;-70
2021/10/13 11:20:45;;;;;;;13.23;7.55;;;;;;;21.61;46.89;101188.03;5054992;28;20033;-71
2021/10/13 11:23:12;;;;;;;9.93;6.40;;;;;;;21.47;48.16;101190.97;5026089;28;20060;-73
2021/10/13 11:25:39;;;;;;;10.85;6.65;;;;;;;21.14;49.38;101185.56;4993471;28;20046;-70
2021/10/13 11:28:11;;;;;;;10.15;5.57;;;;;;;20.99;49.81;101183.28;5000886;28;20042;-71
2021/10/13 11:30:44;;;;;;;10.48;5.30;;;;;;;21.25;49.70;101184.69;4997426;28;20492;-75
2021/10/13 11:33:21;;;;;;;9.95;4.82;;;;;;;21.35;49.92;101185.66;4995692;28;20039;-73
2021/10/13 11:35:49;;;;;;;8.60;4.65;;;;;;;21.31;50.15;101184.19;4994230;28;20026;-73
2021/10/13 11:38:21;;;;;;;9.48;4.53;;;;;;;21.06;50.98;101181.81;4995160;28;20110;-72
2021/10/13 11:40:47;;;;;;;13.98;5.07;;;;;;;21.11;51.15;101187.59;4994180;28;20038;-77
2021/10/13 11:43:18;;;;;;;8.07;4.50;;;;;;;21.23;50.96;101178.66;4995378;28;20030;-70
2021/10/13 11:45:48;;;;;;;6.47;4.53;;;;;;;21.09;51.43;101177.09;4994166;28;20370;-73
2021/10/13 11:48:22;;;;;;;7.18;4.40;;;;;;;21.11;51.31;101187.59;4993841;28;20042;-71
2021/10/13 11:50:48;;;;;;;9.13;4.28;;;;;;;20.93;51.99;101184.59;4995046;28;20030;-69
2021/10/13 11:53:14;;;;;;;17.83;4.38;;;;;;;21.02;51.96;101189.16;4994907;28;20496;-67
2021/10/13 11:55:40;;;;;;;9.00;4.10;;;;;;;20.85;52.46;101187.84;4992967;28;20069;-68
2021/10/13 11:58:05;;;;;;;12.35;4.25;;;;;;;20.80;52.64;101189.97;4994857;28;20090;-68
2021/10/13 12:00:34;;;;;;;8.88;4.03;;;;;;;20.78;52.40;101186.59;5010242;28;20129;-68
2021/10/13 12:03:09;;;;;;;7.63;4.38;;;;;;;20.87;52.28;101185.06;4993760;28;20039;-70
2021/10/13 12:05:45;;;;;;;13.65;4.30;;;;;;;21.36;50.88;101183.84;4993195;28;20527;-70
2021/10/13 12:08:16;;;;;;;7.15;4.07;;;;;;;21.04;51.70;101173.97;4961455;28;20049;-69
2021/10/13 12:10:43;;;;;;;8.98;3.80;;;;;;;21.03;51.80;101179.38;4995490;28;20030;-68
2021/10/13 12:13:14;;;;;;;7.88;4.10;;;;;;;20.85;52.35;101179.03;4994773;28;20089;-69
2021/10/13 12:15:42;;;;;;;8.13;4.03;;;;;;;20.88;52.36;101182.28;4994648;28;20126;-71
2021/10/13 12:18:20;;;;;;;7.95;3.95;;;;;;;21.35;51.21;101174.19;4994746;28;20039;-70
2021/10/13 12:21:08;;;;;;;12.80;4.18;;;;;;;21.35;50.96;101175.03;4994641;28;20699;-72
2021/10/13 12:23:50;;;;;;;7.80;3.85;;;;;;;21.35;50.82;101177.69;4994534;28;20105;-70
2021/10/13 12:26:18;;;;;;;5.60;3.90;;;;;;;21.34;51.07;101165.38;5009665;28;20536;-71
2021/10/13 12:28:46;;;;;;;7.30;4.10;;;;;;;21.05;51.78;101172.16;4994340;28;20054;-68
2021/10/13 12:31:17;;;;;;;8.13;3.70;;;;;;;21.06;51.48;101169.41;5000076;28;20026;-66
2021/10/13 12:33:51;;;;;;;8.45;4.00;;;;;;;20.95;52.08;101172.91;5024744;28;20484;-66
2021/10/13 12:36:29;;;;;;;8.35;3.92;;;;;;;21.02;52.04;101161.81;5021258;28;20088;-67
2021/10/13 12:38:58;;;;;;;6.13;3.67;;;;;;;21.18;51.45;101164.94;5013500;28;20103;-68
2021/10/13 12:41:39;;;;;;;6.82;3.60;;;;;;;21.22;51.22;101165.53;5031683;28;20029;-68
2021/10/13 12:44:14;;;;;;;9.80;3.72;;;;;;;20.93;52.00;101169.53;5032425;28;20065;-66
2021/10/13 12:46:39;;;;;;;;;;;;;;;21.01;51.79;101160.97;5032558;28;20068;-66
2021/10/13 12:49:16;;;;;;;8.05;4.03;;;;;;;20.94;51.93;101165.06;5036435;28;19921;-66
2021/10/13 12:52:05;;;;;;;9.40;3.90;;;;;;;20.83;51.70;101160.63;4996022;28;20037;-67
2021/10/13 12:54:40;;;;;;;6.28;4.38;;;;;;;20.85;51.80;101157.84;5013168;28;20056;-71
2021/10/13 12:57:17;;;;;;;12.48;4.00;;;;;;;21.28;50.51;101155.28;5013442;28;20034;-72
2021/10/13 12:59:43;;;;;;;7.40;3.50;;;;;;;21.00;51.07;101166.41;5012415;28;20065;-69
2021/10/13 13:02:12;;;;;;;9.15;3.75;;;;;;;21.01;50.95;101152.16;5013380;28;20106;-75
2021/10/13 13:04:38;;;;;;;9.38;4.35;;;;;;;20.93;51.38;101160.72;5013373;28;20447;-72
2021/10/13 13:07:09;;;;;;;7.05;3.22;;;;;;;20.97;51.25;101163.03;5015474;28;20113;-69
2021/10/13 13:09:35;;;;;;;6.40;3.40;;;;;;;21.17;50.42;101160.63;5033174;28;20034;-70
2021/10/13 13:12:01;;;;;;;5.07;3.40;;;;;;;20.91;51.21;101157.34;5007947;28;20033;-69
2021/10/13 13:14:27;;;;;;;5.28;3.33;;;;;;;20.79;51.50;101153.88;4975595;28;20374;-68
2021/10/13 13:16:52;;;;;;;5.10;3.20;;;;;;;20.72;51.84;101157.97;4993386;28;20115;-70
2021/10/13 13:19:18;;;;;;;5.25;3.40;;;;;;;20.67;51.89;101158.31;4976280;28;20034;-69
2021/10/13 13:21:45;;;;;;;5.35;3.38;;;;;;;20.68;51.76;101162.66;4993761;28;20034;-69
2021/10/13 13:24:11;;;;;;;6.43;3.60;;;;;;;20.69;51.69;101155.53;4993775;28;20485;-70
2021/10/13 13:26:37;;;;;;;5.25;3.55;;;;;;;20.72;51.64;101161.44;4976020;28;20145;-69
2021/10/13 13:29:03;;;;;;;6.95;3.45;;;;;;;20.66;51.62;101155.78;4993468;28;20043;-69
2021/10/13 13:31:29;;;;;;;10.30;3.55;;;;;;;20.67;51.85;101162.75;4976546;28;20265;-68
2021/10/13 13:33:55;;;;;;;18.20;4.00;;;;;;;20.80;51.14;101174.09;4993815;28;20577;-71
2021/10/13 13:36:21;;;;;;;17.80;3.63;;;;;;;20.99;50.75;101168.22;4993605;28;20076;-71
2021/10/13 13:38:48;;;;;;;8.80;3.60;;;;;;;20.89;51.07;101170.72;4976554;28;20493;-66
2021/10/13 13:41:14;;;;;;;7.68;3.50;;;;;;;20.81;51.16;101164.34;4992133;28;20543;-68
2021/10/13 13:43:42;;;;;;;10.77;3.28;;;;;;;21.00;50.74;101180.47;4992469;28;20039;-72
2021/10/13 13:46:12;;;;;;;7.50;3.50;;;;;;;20.88;50.83;101182.28;4993540;28;20045;-69
2021/10/13 13:48:37;;;;;;;7.90;3.80;;;;;;;21.05;50.25;101177.47;4993572;28;20042;-70
2021/10/13 13:51:03;;;;;;;8.07;3.70;;;;;;;21.00;50.41;101182.28;4992629;28;20034;-71
2021/10/13 13:53:29;;;;;;;9.82;3.75;;;;;;;20.99;50.53;101183.28;4997063;28;20042;-70
2021/10/13 13:55:56;;;;;;;7.75;3.47;;;;;;;21.18;49.90;101186.13;4997439;28;20034;-69
2021/10/13 13:58:21;;;;;;;6.32;3.45;;;;;;;21.24;49.61;101188.31;4997073;28;20030;-69
2021/10/13 14:00:47;;;;;;;8.27;3.58;;;;;;;20.94;50.37;101187.13;4996251;28;20507;-68
2021/10/13 14:03:15;;;;;;;8.15;4.10;;;;;;;21.16;49.76;101185.41;4995870;28;20031;-69
2021/10/13 14:05:41;;;;;;;7.43;3.35;;;;;;;21.00;50.06;101190.25;4995794;28;20104;-67
2021/10/13 14:08:08;;;;;;;6.75;3.35;;;;;;;20.95;50.30;101190.59;4995740;28;20486;-69
2021/10/13 14:10:35;;;;;;;5.75;3.47;;;;;;;20.83;50.61;101187.13;4995865;28;20038;-68
2021/10/13 14:13:06;;;;;;;7.55;3.60;;;;;;;20.85;50.63;101192.28;4996840;28;20057;-70
2021/10/13 14:15:32;;;;;;;5.55;3.40;;;;;;;21.02;49.86;101189.16;4996931;28;20042;-67
2021/10/13 14:17:59;;;;;;;7.47;3.50;;;;;;;21.07;49.80;101191.44;4997015;28;20041;-68
2021/10/13 14:20:26;;;;;;;7.45;3.38;;;;;;;21.25;49.35;101192.63;4996773;28;20110;-78
2021/10/13 14:22:52;;;;;;;6.97;3.60;;;;;;;21.25;49.02;101197.94;4997040;28;20042;-69
2021/10/13 14:25:18;;;;;;;7.63;3.50;;;;;;;21.02;49.69;101199.75;4995477;28;20053;-70
2021/10/13 14:27:43;;;;;;;8.43;3.28;;;;;;;20.95;50.05;101194.09;4996583;28;20092;-70
2021/10/13 14:30:10;;;;;;;6.47;3.60;;;;;;;20.93;49.96;101196.00;5011764;28;20058;-69
2021/10/13 14:32:38;;;;;;;6.63;3.30;;;;;;;20.98;49.99;101208.91;4996575;28;20058;-70
2021/10/13 14:35:04;;;;;;;6.25;3.80;;;;;;;21.29;48.85;101207.34;4995608;28;20141;-69
2021/10/13 14:37:30;;;;;;;8.43;3.80;;;;;;;21.20;49.14;101207.22;4996441;28;20489;-66
2021/10/13 14:39:56;;;;;;;6.00;3.58;;;;;;;21.15;49.04;101205.78;4995043;28;20042;-69
2021/10/13 14:42:25;;;;;;;6.70;3.80;;;;;;;21.39;48.27;101204.81;5001413;28;20026;-67
2021/10/13 14:44:56;;;;;;;9.07;3.78;;;;;;;21.25;48.44;101211.19;5007057;28;20107;-73
2021/10/13 14:47:26;;;;;;;11.65;4.03;;;;;;;21.36;48.51;101211.19;5024684;28;20034;-76
2021/10/13 14:49:53;;;;;;;9.10;3.85;;;;;;;21.53;48.33;101217.00;5016510;28;20056;-69
2021/10/13 14:52:19;;;;;;;13.00;3.65;;;;;;;21.72;48.06;101214.53;4997511;28;20068;-75
2021/10/13 14:54:44;;;;;;;5.97;3.80;;;;;;;21.75;48.26;101219.59;5032249;28;20057;-74
2021/10/13 14:57:11;;;;;;;5.40;3.10;;;;;;;21.67;48.46;101224.66;5011914;28;20026;-68
2021/10/13 14:59:40;;;;;;;5.78;3.28;;;;;;;21.56;48.67;101222.03;5007433;28;20104;-72
2021/10/13 15:02:08;;;;;;;4.68;3.42;;;;;;;21.68;48.66;101230.81;5012419;28;20083;-71
2021/10/13 15:04:34;;;;;;;5.03;3.35;;;;;;;21.66;48.82;101232.75;5035154;28;20045;-75
2021/10/13 15:07:00;;;;;;;5.47;3.30;;;;;;;21.61;49.03;101238.41;5034098;28;20030;-76
2021/10/13 15:09:26;;;;;;;4.95;3.15;;;;;;;21.84;48.65;101238.38;5035381;28;20084;-70
2021/10/13 15:11:51;;;;;;;4.97;3.30;;;;;;;21.61;48.93;101249.03;5035386;28;20491;-76
2021/10/13 15:14:22;;;;;;;6.97;3.38;;;;;;;21.54;49.70;101247.84;5034965;28;20034;-71
2021/10/13 15:16:48;;;;;;;4.85;2.92;;;;;;;21.57;49.49;101244.97;4997007;28;20042;-74
2021/10/13 15:19:19;;;;;;;4.20;2.97;;;;;;;21.56;49.36;101254.69;5017533;28;20083;-73
2021/10/13 15:21:46;;;;;;;4.15;3.17;;;;;;;21.59;49.60;101256.25;5035039;28;20075;-72
2021/10/13 15:24:13;;;;;;;4.97;3.17;;;;;;;21.60;49.80;101260.63;5017453;28;20045;-73
2021/10/13 15:26:42;;;;;;;8.07;3.05;;;;;;;21.60;49.80;101260.63;5035057;28;20077;-70
2021/10/13 15:29:24;;;;;;;4.53;3.00;;;;;;;21.66;49.63;101268.09;5034847;28;20099;-73
2021/10/13 15:31:53;;;;;;;4.00;2.90;;;;;;;21.58;49.92;101263.38;5017429;28;20444;-70
2021/10/13 15:34:19;;;;;;;5.22;3.20;;;;;;;21.53;50.24;101267.38;5034500;28;20128;-72
2021/10/13 15:36:46;;;;;;;4.00;2.80;;;;;;;21.57;50.04;101279.44;5034710;28;20491;-69
2021/10/13 15:39:13;;;;;;;6.60;3.58;;;;;;;21.24;49.09;101273.13;5034675;28;20507;-67
2021/10/13 15:41:40;;;;;;;6.40;2.88;;;;;;;20.92;49.96;101289.72;5000676;28;20116;-79
2021/10/13 15:44:07;;;;;;;7.65;3.42;;;;;;;20.83;49.99;101284.25;4999402;28;20038;-69
2021/10/13 15:46:37;;;;;;;4.90;2.92;;;;;;;20.72;49.78;101295.69;5014997;28;20500;-67
2021/10/13 15:49:04;;;;;;;5.80;3.15;;;;;;;20.69;49.72;101298.56;4981233;28;20052;-73
2021/10/13 15:51:31;;;;;;;5.05;3.00;;;;;;;20.66;50.15;101301.44;5014739;28;20033;-68
2021/10/13 15:54:00;;;;;;;5.10;3.22;;;;;;;20.63;50.22;101306.97;5012064;28;20488;-68
2021/10/13 15:56:26;;;;;;;6.78;3.30;;;;;;;20.60;50.36;101310.69;5034478;28;20068;-74
2021/10/13 15:58:52;;;;;;;4.30;3.15;;;;;;;20.57;50.03;101325.97;5034431;28;20033;-71
2021/10/13 16:01:19;;;;;;;6.18;3.00;;;;;;;20.51;50.41;101317.47;5016587;28;20041;-67
2021/10/13 16:03:45;;;;;;;10.10;2.88;;;;;;;20.49;50.41;101323.84;4977471;28;20061;-69
2021/10/13 16:06:11;;;;;;;4.60;2.97;;;;;;;20.42;50.79;101326.09;5008968;28;20051;-66
2021/10/13 16:08:38;;;;;;;5.68;2.90;;;;;;;20.41;50.72;101340.31;5004977;28;20472;-67
2021/10/13 16:11:05;;;;;;;6.97;2.72;;;;;;;20.41;51.00;101336.81;5011388;28;20508;-66
2021/10/13 16:13:32;;;;;;;4.72;2.85;;;;;;;20.38;50.88;101337.91;5011461;28;20476;-68
2021/10/13 16:15:58;;;;;;;6.50;2.75;;;;;;;20.37;50.79;101348.59;5001345;28;20035;-71
2021/10/13 16:18:24;;;;;;;4.35;2.92;;;;;;;20.33;51.03;101351.44;4966305;28;20132;-71
2021/10/13 16:20:50;;;;;;;5.43;2.47;;;;;;;20.29;50.90;101355.28;5004199;28;20034;-71
2021/10/13 16:23:16;;;;;;;4.13;2.30;;;;;;;20.26;51.21;101354.66;5008021;28;20049;-75
2021/10/13 16:25:42;;;;;;;6.95;2.80;;;;;;;20.24;51.26;101356.56;4994049;28;20065;-67
2021/10/13 16:28:07;;;;;;;6.75;2.53;;;;;;;20.22;51.43;101353.19;5007905;28;20065;-71
2021/10/13 16:30:33;;;;;;;5.53;2.40;;;;;;;20.19;51.32;101364.84;4991430;28;20038;-68
2021/10/13 16:32:59;;;;;;;4.20;2.70;;;;;;;20.15;51.57;101360.72;4995541;28;20071;-68
2021/10/13 16:35:25;;;;;;;5.60;2.45;;;;;;;20.12;51.62;101369.72;5002428;28;20073;-69
2021/10/13 16:37:51;;;;;;;5.47;2.67;;;;;;;20.09;51.67;101371.78;5010291;28;20125;-67
2021/10/13 16:40:17;;;;;;;7.15;2.55;;;;;;;20.04;51.99;101369.41;5010311;28;20034;-70
2021/10/13 16:42:43;;;;;;;6.82;2.60;;;;;;;20.02;52.33;101376.66;5010301;28;20029;-73
2021/10/13 16:45:08;;;;;;;3.65;2.35;;;;;;;20.01;51.86;101377.59;5007184;28;20566;-69
2021/10/13 16:47:35;;;;;;;8.23;2.50;;;;;;;20.00;52.10;101386.50;5011642;28;20496;-70
2021/10/13 16:50:02;;;;;;;3.58;2.35;;;;;;;19.98;51.94;101388.41;4994398;28;20034;-73
2021/10/13 16:52:29;;;;;;;4.03;2.35;;;;;;;19.95;52.10;101391.25;5012129;28;20367;-71
2021/10/13 16:54:54;;;;;;;4.25;2.30;;;;;;;20.01;52.18;101389.97;4995837;28;20046;-67
2021/10/13 16:57:20;;;;;;;5.07;2.22;;;;;;;20.04;52.76;101393.22;5000200;28;20034;-69
2021/10/13 16:59:46;;;;;;;6.05;2.42;;;;;;;20.07;53.07;101403.63;5011768;28;20046;-69
2021/10/13 17:02:12;;;;;;;4.85;2.28;;;;;;;20.04;53.20;101398.53;5008199;28;20030;-68
2021/10/13 17:04:38;;;;;;;10.10;2.78;;;;;;;20.10;52.81;101400.75;5002150;28;20432;-69
